sensor_id;sensor_type;location;lat;lon;timestamp;temperature;humidity
14172;DHT22;7165;52.388;4.928;2023-02-15T00:02:02;3.60;99.90
14172;DHT22;7165;52.388;4.928;2023-02-15T00:04:29;3.60;99.90
14172;DHT22;7165;52.388;4.928;2023-02-15T00:07:15;3.60;99.90
14172;DHT22;7165;52.388;4.928;2023-02-15T00:09:42;3.60;99.90
14172;DHT22;7165;52.388;4.928;2023-02-15T00:12:09;3.60;99.90
14172;DHT22;7165;52.388;4.928;2023-02-15T00:14:37;3.60;99.90
14172;DHT22;7165;52.388;4.928;2023-02-15T00:17:04;3.60;99.90
14172;DHT22;7165;52.388;4.928;2023-02-15T00:19:31;3.50;99.90
14172;DHT22;7165;52.388;4.928;2023-02-15T00:21:58;3.50;99.90
14172;DHT22;7165;52.388;4.928;2023-02-15T00:24:26;3.50;99.90
14172;DHT22;7165;52.388;4.928;2023-02-15T00:26:53;3.50;99.90
14172;DHT22;7165;52.388;4.928;2023-02-15T00:29:21;3.50;99.90
14172;DHT22;7165;52.388;4.928;2023-02-15T00:31:48;3.50;99.90
14172;DHT22;7165;52.388;4.928;2023-02-15T00:34:18;3.50;99.90
14172;DHT22;7165;52.388;4.928;2023-02-15T00:36:46;3.40;99.90
14172;DHT22;7165;52.388;4.928;2023-02-15T00:39:13;3.40;99.90
14172;DHT22;7165;52.388;4.928;2023-02-15T00:41:42;3.40;99.90
14172;DHT22;7165;52.388;4.928;2023-02-15T00:44:09;3.40;99.90
14172;DHT22;7165;52.388;4.928;2023-02-15T00:46:36;3.40;99.90
14172;DHT22;7165;52.388;4.928;2023-02-15T00:49:03;3.40;99.90
14172;DHT22;7165;52.388;4.928;2023-02-15T00:51:31;3.40;99.90
14172;DHT22;7165;52.388;4.928;2023-02-15T00:53:58;3.40;99.90
14172;DHT22;7165;52.388;4.928;2023-02-15T00:56:25;3.40;99.90
14172;DHT22;7165;52.388;4.928;2023-02-15T00:58:55;3.40;99.90
14172;DHT22;7165;52.388;4.928;2023-02-15T01:01:23;3.30;99.90
14172;DHT22;7165;52.388;4.928;2023-02-15T01:03:51;3.30;99.90
14172;DHT22;7165;52.388;4.928;2023-02-15T01:06:18;3.20;99.90
14172;DHT22;7165;52.388;4.928;2023-02-15T01:08:46;3.20;99.90
14172;DHT22;7165;52.388;4.928;2023-02-15T01:11:15;3.20;99.90
14172;DHT22;7165;52.388;4.928;2023-02-15T01:13:47;3.20;99.90
14172;DHT22;7165;52.388;4.928;2023-02-15T01:16:16;3.20;99.90
14172;DHT22;7165;52.388;4.928;2023-02-15T01:18:43;3.10;99.90
14172;DHT22;7165;52.388;4.928;2023-02-15T01:21:11;3.20;99.90
14172;DHT22;7165;52.388;4.928;2023-02-15T01:23:39;3.10;99.90
14172;DHT22;7165;52.388;4.928;2023-02-15T01:26:06;3.10;99.90
14172;DHT22;7165;52.388;4.928;2023-02-15T01:28:33;3.10;99.90
14172;DHT22;7165;52.388;4.928;2023-02-15T01:31:04;3.10;99.90
14172;DHT22;7165;52.388;4.928;2023-02-15T01:33:33;3.10;99.90
14172;DHT22;7165;52.388;4.928;2023-02-15T01:36:01;3.10;99.90
14172;DHT22;7165;52.388;4.928;2023-02-15T01:38:28;3.10;99.90
14172;DHT22;7165;52.388;4.928;2023-02-15T01:40:55;3.10;99.90
14172;DHT22;7165;52.388;4.928;2023-02-15T01:43:45;3.10;99.90
14172;DHT22;7165;52.388;4.928;2023-02-15T01:46:13;3.10;99.90
14172;DHT22;7165;52.388;4.928;2023-02-15T01:48:44;3.10;99.90
14172;DHT22;7165;52.388;4.928;2023-02-15T01:51:14;3.00;99.90
14172;DHT22;7165;52.388;4.928;2023-02-15T01:53:46;3.00;99.90
14172;DHT22;7165;52.388;4.928;2023-02-15T01:56:17;3.00;99.90
14172;DHT22;7165;52.388;4.928;2023-02-15T01:58:45;3.00;99.90
14172;DHT22;7165;52.388;4.928;2023-02-15T02:01:15;3.00;99.90
14172;DHT22;7165;52.388;4.928;2023-02-15T02:03:54;3.00;99.90
14172;DHT22;7165;52.388;4.928;2023-02-15T02:06:23;3.00;99.90
14172;DHT22;7165;52.388;4.928;2023-02-15T02:08:51;3.00;99.90
14172;DHT22;7165;52.388;4.928;2023-02-15T02:11:18;3.00;99.90
14172;DHT22;7165;52.388;4.928;2023-02-15T02:13:45;3.00;99.90
14172;DHT22;7165;52.388;4.928;2023-02-15T02:16:17;3.00;99.90
14172;DHT22;7165;52.388;4.928;2023-02-15T02:18:53;3.00;99.90
14172;DHT22;7165;52.388;4.928;2023-02-15T02:21:49;3.00;99.90
14172;DHT22;7165;52.388;4.928;2023-02-15T02:24:39;3.00;99.90
14172;DHT22;7165;52.388;4.928;2023-02-15T02:27:24;3.00;99.90
14172;DHT22;7165;52.388;4.928;2023-02-15T02:30:20;2.90;99.90
14172;DHT22;7165;52.388;4.928;2023-02-15T02:33:12;2.90;99.90
14172;DHT22;7165;52.388;4.928;2023-02-15T02:35:49;2.90;99.90
14172;DHT22;7165;52.388;4.928;2023-02-15T02:38:23;2.90;99.90
14172;DHT22;7165;52.388;4.928;2023-02-15T02:40:59;2.80;99.90
14172;DHT22;7165;52.388;4.928;2023-02-15T02:43:34;2.80;99.90
14172;DHT22;7165;52.388;4.928;2023-02-15T02:46:07;2.80;99.90
14172;DHT22;7165;52.388;4.928;2023-02-15T02:48:38;2.80;99.90
14172;DHT22;7165;52.388;4.928;2023-02-15T02:51:05;2.80;99.90
14172;DHT22;7165;52.388;4.928;2023-02-15T02:53:33;2.80;99.90
14172;DHT22;7165;52.388;4.928;2023-02-15T02:56:05;2.70;99.90
14172;DHT22;7165;52.388;4.928;2023-02-15T02:58:37;2.80;99.90
14172;DHT22;7165;52.388;4.928;2023-02-15T03:01:09;2.70;99.90
14172;DHT22;7165;52.388;4.928;2023-02-15T03:03:41;2.80;99.90
14172;DHT22;7165;52.388;4.928;2023-02-15T03:06:14;2.80;99.90
14172;DHT22;7165;52.388;4.928;2023-02-15T03:08:47;2.80;99.90
14172;DHT22;7165;52.388;4.928;2023-02-15T03:11:15;2.80;99.90
14172;DHT22;7165;52.388;4.928;2023-02-15T03:13:43;2.80;99.90
14172;DHT22;7165;52.388;4.928;2023-02-15T03:16:12;2.70;99.90
14172;DHT22;7165;52.388;4.928;2023-02-15T03:19:00;2.70;99.90
14172;DHT22;7165;52.388;4.928;2023-02-15T03:21:33;2.70;99.90
14172;DHT22;7165;52.388;4.928;2023-02-15T03:24:05;2.70;99.90
14172;DHT22;7165;52.388;4.928;2023-02-15T03:26:34;2.60;99.90
14172;DHT22;7165;52.388;4.928;2023-02-15T03:29:03;2.70;99.90
14172;DHT22;7165;52.388;4.928;2023-02-15T03:31:35;2.60;99.90
14172;DHT22;7165;52.388;4.928;2023-02-15T03:34:07;2.60;99.90
14172;DHT22;7165;52.388;4.928;2023-02-15T03:36:40;2.60;99.90
14172;DHT22;7165;52.388;4.928;2023-02-15T03:39:14;2.60;99.90
14172;DHT22;7165;52.388;4.928;2023-02-15T03:41:48;2.60;99.90
14172;DHT22;7165;52.388;4.928;2023-02-15T03:44:18;2.60;99.90
14172;DHT22;7165;52.388;4.928;2023-02-15T03:46:49;2.60;99.90
14172;DHT22;7165;52.388;4.928;2023-02-15T03:49:24;2.60;99.90
14172;DHT22;7165;52.388;4.928;2023-02-15T03:51:54;2.60;99.90
14172;DHT22;7165;52.388;4.928;2023-02-15T03:54:23;2.50;99.90
14172;DHT22;7165;52.388;4.928;2023-02-15T03:57:11;2.60;99.90
14172;DHT22;7165;52.388;4.928;2023-02-15T03:59:56;2.60;99.90
14172;DHT22;7165;52.388;4.928;2023-02-15T04:02:45;2.70;99.90
14172;DHT22;7165;52.388;4.928;2023-02-15T04:05:15;2.70;99.90
14172;DHT22;7165;52.388;4.928;2023-02-15T04:07:42;2.70;99.90
14172;DHT22;7165;52.388;4.928;2023-02-15T04:10:09;2.80;99.90
14172;DHT22;7165;52.388;4.928;2023-02-15T04:12:54;2.80;99.90
14172;DHT22;7165;52.388;4.928;2023-02-15T04:15:20;2.90;99.90
14172;DHT22;7165;52.388;4.928;2023-02-15T04:18:05;3.10;99.90
14172;DHT22;7165;52.388;4.928;2023-02-15T04:20:33;3.20;99.90
14172;DHT22;7165;52.388;4.928;2023-02-15T04:23:17;3.20;99.90
14172;DHT22;7165;52.388;4.928;2023-02-15T04:26:03;3.20;99.90
14172;DHT22;7165;52.388;4.928;2023-02-15T04:28:30;3.20;99.90
14172;DHT22;7165;52.388;4.928;2023-02-15T04:30:57;3.20;99.90
14172;DHT22;7165;52.388;4.928;2023-02-15T04:33:24;3.20;99.90
14172;DHT22;7165;52.388;4.928;2023-02-15T04:35:52;3.20;99.90
14172;DHT22;7165;52.388;4.928;2023-02-15T04:38:19;3.20;99.90
14172;DHT22;7165;52.388;4.928;2023-02-15T04:40:50;3.10;99.90
14172;DHT22;7165;52.388;4.928;2023-02-15T04:43:17;3.20;99.90
14172;DHT22;7165;52.388;4.928;2023-02-15T04:45:47;3.20;99.90
14172;DHT22;7165;52.388;4.928;2023-02-15T04:48:14;3.30;99.90
14172;DHT22;7165;52.388;4.928;2023-02-15T04:50:41;3.40;99.90
14172;DHT22;7165;52.388;4.928;2023-02-15T04:53:10;3.50;99.90
14172;DHT22;7165;52.388;4.928;2023-02-15T04:55:37;3.60;99.90
14172;DHT22;7165;52.388;4.928;2023-02-15T04:58:04;3.70;99.90
14172;DHT22;7165;52.388;4.928;2023-02-15T05:00:31;3.70;99.90
14172;DHT22;7165;52.388;4.928;2023-02-15T05:02:58;3.70;99.90
14172;DHT22;7165;52.388;4.928;2023-02-15T05:05:24;3.70;99.90
14172;DHT22;7165;52.388;4.928;2023-02-15T05:07:51;3.70;99.90
14172;DHT22;7165;52.388;4.928;2023-02-15T05:10:19;3.70;99.90
14172;DHT22;7165;52.388;4.928;2023-02-15T05:12:46;3.70;99.90
14172;DHT22;7165;52.388;4.928;2023-02-15T05:15:13;3.70;99.90
14172;DHT22;7165;52.388;4.928;2023-02-15T05:17:40;3.70;99.90
14172;DHT22;7165;52.388;4.928;2023-02-15T05:20:07;3.60;99.90
14172;DHT22;7165;52.388;4.928;2023-02-15T05:22:34;3.60;99.90
14172;DHT22;7165;52.388;4.928;2023-02-15T05:25:00;3.50;99.90
14172;DHT22;7165;52.388;4.928;2023-02-15T05:27:46;3.50;99.90
14172;DHT22;7165;52.388;4.928;2023-02-15T05:30:30;3.40;99.90
14172;DHT22;7165;52.388;4.928;2023-02-15T05:32:57;3.50;99.90
14172;DHT22;7165;52.388;4.928;2023-02-15T05:35:24;3.50;99.90
14172;DHT22;7165;52.388;4.928;2023-02-15T05:37:51;3.60;99.90
14172;DHT22;7165;52.388;4.928;2023-02-15T05:40:18;3.60;99.90
14172;DHT22;7165;52.388;4.928;2023-02-15T05:42:46;3.70;99.90
14172;DHT22;7165;52.388;4.928;2023-02-15T05:45:13;3.70;99.90
14172;DHT22;7165;52.388;4.928;2023-02-15T05:47:40;3.70;99.90
14172;DHT22;7165;52.388;4.928;2023-02-15T05:50:08;3.80;99.90
14172;DHT22;7165;52.388;4.928;2023-02-15T05:52:35;3.70;99.90
14172;DHT22;7165;52.388;4.928;2023-02-15T05:55:02;3.70;99.90
14172;DHT22;7165;52.388;4.928;2023-02-15T05:57:30;3.70;99.90
14172;DHT22;7165;52.388;4.928;2023-02-15T05:59:58;3.70;99.90
14172;DHT22;7165;52.388;4.928;2023-02-15T06:02:25;3.70;99.90
14172;DHT22;7165;52.388;4.928;2023-02-15T06:04:52;3.60;99.90
14172;DHT22;7165;52.388;4.928;2023-02-15T06:07:18;3.60;99.90
14172;DHT22;7165;52.388;4.928;2023-02-15T06:09:45;3.60;99.90
14172;DHT22;7165;52.388;4.928;2023-02-15T06:12:12;3.50;99.90
14172;DHT22;7165;52.388;4.928;2023-02-15T06:14:39;3.50;99.90
14172;DHT22;7165;52.388;4.928;2023-02-15T06:17:07;3.60;99.90
14172;DHT22;7165;52.388;4.928;2023-02-15T06:19:34;3.60;99.90
14172;DHT22;7165;52.388;4.928;2023-02-15T06:22:00;3.60;99.90
14172;DHT22;7165;52.388;4.928;2023-02-15T06:24:27;3.70;99.90
14172;DHT22;7165;52.388;4.928;2023-02-15T06:26:54;3.80;99.90
14172;DHT22;7165;52.388;4.928;2023-02-15T06:29:21;3.80;99.90
14172;DHT22;7165;52.388;4.928;2023-02-15T06:31:47;3.90;99.90
14172;DHT22;7165;52.388;4.928;2023-02-15T06:34:16;3.90;99.90
14172;DHT22;7165;52.388;4.928;2023-02-15T06:36:42;3.90;99.90
14172;DHT22;7165;52.388;4.928;2023-02-15T06:39:09;3.90;99.90
14172;DHT22;7165;52.388;4.928;2023-02-15T06:41:36;3.90;99.90
14172;DHT22;7165;52.388;4.928;2023-02-15T06:44:03;3.90;99.90
14172;DHT22;7165;52.388;4.928;2023-02-15T06:46:31;3.90;99.90
14172;DHT22;7165;52.388;4.928;2023-02-15T06:48:57;3.90;99.90
14172;DHT22;7165;52.388;4.928;2023-02-15T06:51:25;3.90;99.90
14172;DHT22;7165;52.388;4.928;2023-02-15T06:53:52;3.90;99.90
14172;DHT22;7165;52.388;4.928;2023-02-15T06:56:19;3.90;99.90
14172;DHT22;7165;52.388;4.928;2023-02-15T06:58:45;3.90;99.90
14172;DHT22;7165;52.388;4.928;2023-02-15T07:01:14;3.90;99.90
14172;DHT22;7165;52.388;4.928;2023-02-15T07:03:41;3.90;99.90
14172;DHT22;7165;52.388;4.928;2023-02-15T07:06:08;3.90;99.90
14172;DHT22;7165;52.388;4.928;2023-02-15T07:08:38;3.90;99.90
14172;DHT22;7165;52.388;4.928;2023-02-15T07:11:06;3.90;99.90
14172;DHT22;7165;52.388;4.928;2023-02-15T07:13:50;3.90;99.90
14172;DHT22;7165;52.388;4.928;2023-02-15T07:16:17;3.90;99.90
14172;DHT22;7165;52.388;4.928;2023-02-15T07:18:44;3.90;99.90
14172;DHT22;7165;52.388;4.928;2023-02-15T07:21:11;3.90;99.90
14172;DHT22;7165;52.388;4.928;2023-02-15T07:23:40;3.90;99.90
14172;DHT22;7165;52.388;4.928;2023-02-15T07:26:06;3.90;99.90
14172;DHT22;7165;52.388;4.928;2023-02-15T07:28:34;3.90;99.90
14172;DHT22;7165;52.388;4.928;2023-02-15T07:31:02;3.90;99.90
14172;DHT22;7165;52.388;4.928;2023-02-15T07:33:30;4.00;99.90
14172;DHT22;7165;52.388;4.928;2023-02-15T07:35:58;4.00;99.90
14172;DHT22;7165;52.388;4.928;2023-02-15T07:38:26;4.00;99.90
14172;DHT22;7165;52.388;4.928;2023-02-15T07:40:59;4.00;99.90
14172;DHT22;7165;52.388;4.928;2023-02-15T07:43:25;4.00;99.90
14172;DHT22;7165;52.388;4.928;2023-02-15T07:45:52;4.00;99.90
14172;DHT22;7165;52.388;4.928;2023-02-15T07:48:19;4.10;99.90
14172;DHT22;7165;52.388;4.928;2023-02-15T07:50:45;4.10;99.90
14172;DHT22;7165;52.388;4.928;2023-02-15T07:53:12;4.10;99.90
14172;DHT22;7165;52.388;4.928;2023-02-15T07:55:39;4.10;99.90
14172;DHT22;7165;52.388;4.928;2023-02-15T07:58:07;4.10;99.90
14172;DHT22;7165;52.388;4.928;2023-02-15T08:00:33;4.20;99.90
14172;DHT22;7165;52.388;4.928;2023-02-15T08:03:22;4.20;99.90
14172;DHT22;7165;52.388;4.928;2023-02-15T08:05:55;4.20;99.90
14172;DHT22;7165;52.388;4.928;2023-02-15T08:08:22;4.30;99.90
14172;DHT22;7165;52.388;4.928;2023-02-15T08:10:59;4.30;99.90
14172;DHT22;7165;52.388;4.928;2023-02-15T08:17:06;4.40;99.90
14172;DHT22;7165;52.388;4.928;2023-02-15T08:19:33;4.40;99.90
14172;DHT22;7165;52.388;4.928;2023-02-15T08:22:02;4.50;99.90
14172;DHT22;7165;52.388;4.928;2023-02-15T08:24:31;4.50;99.90
14172;DHT22;7165;52.388;4.928;2023-02-15T08:26:58;4.60;99.90
14172;DHT22;7165;52.388;4.928;2023-02-15T08:29:27;4.60;99.90
14172;DHT22;7165;52.388;4.928;2023-02-15T08:31:56;4.70;99.90
14172;DHT22;7165;52.388;4.928;2023-02-15T08:34:25;4.70;99.90
14172;DHT22;7165;52.388;4.928;2023-02-15T08:36:52;4.70;99.90
14172;DHT22;7165;52.388;4.928;2023-02-15T08:39:18;4.70;99.90
14172;DHT22;7165;52.388;4.928;2023-02-15T08:41:47;4.80;99.90
14172;DHT22;7165;52.388;4.928;2023-02-15T08:44:14;4.80;99.90
14172;DHT22;7165;52.388;4.928;2023-02-15T08:46:42;4.90;99.90
14172;DHT22;7165;52.388;4.928;2023-02-15T08:49:12;5.00;99.90
14172;DHT22;7165;52.388;4.928;2023-02-15T08:51:41;5.10;99.90
14172;DHT22;7165;52.388;4.928;2023-02-15T08:54:09;5.10;99.90
14172;DHT22;7165;52.388;4.928;2023-02-15T08:56:38;5.20;99.90
14172;DHT22;7165;52.388;4.928;2023-02-15T08:59:06;5.30;99.90
14172;DHT22;7165;52.388;4.928;2023-02-15T09:01:34;5.30;99.90
14172;DHT22;7165;52.388;4.928;2023-02-15T09:04:02;5.40;99.90
14172;DHT22;7165;52.388;4.928;2023-02-15T09:06:31;5.50;99.90
14172;DHT22;7165;52.388;4.928;2023-02-15T09:08:59;5.60;99.90
14172;DHT22;7165;52.388;4.928;2023-02-15T09:11:28;5.70;99.90
14172;DHT22;7165;52.388;4.928;2023-02-15T09:13:57;5.80;99.90
14172;DHT22;7165;52.388;4.928;2023-02-15T09:16:25;5.90;99.90
14172;DHT22;7165;52.388;4.928;2023-02-15T09:18:53;5.90;99.90
14172;DHT22;7165;52.388;4.928;2023-02-15T09:21:21;6.00;99.90
14172;DHT22;7165;52.388;4.928;2023-02-15T09:23:50;6.10;99.90
14172;DHT22;7165;52.388;4.928;2023-02-15T09:26:19;6.20;99.90
14172;DHT22;7165;52.388;4.928;2023-02-15T09:28:47;6.20;99.90
14172;DHT22;7165;52.388;4.928;2023-02-15T09:31:16;6.30;99.90
14172;DHT22;7165;52.388;4.928;2023-02-15T09:33:44;6.40;99.90
14172;DHT22;7165;52.388;4.928;2023-02-15T09:36:16;6.40;99.90
14172;DHT22;7165;52.388;4.928;2023-02-15T09:38:44;6.50;99.90
14172;DHT22;7165;52.388;4.928;2023-02-15T09:41:33;6.60;99.90
14172;DHT22;7165;52.388;4.928;2023-02-15T09:44:14;6.60;99.90
14172;DHT22;7165;52.388;4.928;2023-02-15T09:46:58;6.70;99.90
14172;DHT22;7165;52.388;4.928;2023-02-15T09:49:30;6.80;99.90
14172;DHT22;7165;52.388;4.928;2023-02-15T09:52:18;6.90;99.90
14172;DHT22;7165;52.388;4.928;2023-02-15T09:55:01;7.00;99.90
14172;DHT22;7165;52.388;4.928;2023-02-15T09:57:37;7.00;99.90
14172;DHT22;7165;52.388;4.928;2023-02-15T10:00:15;7.10;99.90
14172;DHT22;7165;52.388;4.928;2023-02-15T10:02:57;7.20;99.90
14172;DHT22;7165;52.388;4.928;2023-02-15T10:05:38;7.30;99.90
14172;DHT22;7165;52.388;4.928;2023-02-15T10:08:25;7.40;99.90
14172;DHT22;7165;52.388;4.928;2023-02-15T10:11:04;7.50;99.90
14172;DHT22;7165;52.388;4.928;2023-02-15T10:14:07;7.60;99.90
14172;DHT22;7165;52.388;4.928;2023-02-15T10:16:42;7.80;99.90
14172;DHT22;7165;52.388;4.928;2023-02-15T10:19:14;7.90;99.90
14172;DHT22;7165;52.388;4.928;2023-02-15T10:21:55;8.00;99.90
14172;DHT22;7165;52.388;4.928;2023-02-15T10:24:43;8.00;99.90
14172;DHT22;7165;52.388;4.928;2023-02-15T10:27:17;8.20;99.90
14172;DHT22;7165;52.388;4.928;2023-02-15T10:29:53;8.30;99.90
14172;DHT22;7165;52.388;4.928;2023-02-15T10:32:24;8.40;99.90
14172;DHT22;7165;52.388;4.928;2023-02-15T10:34:54;8.40;99.90
14172;DHT22;7165;52.388;4.928;2023-02-15T10:37:36;8.50;99.90
14172;DHT22;7165;52.388;4.928;2023-02-15T10:40:09;8.60;99.90
14172;DHT22;7165;52.388;4.928;2023-02-15T10:42:46;8.70;99.90
14172;DHT22;7165;52.388;4.928;2023-02-15T10:45:24;8.80;99.90
14172;DHT22;7165;52.388;4.928;2023-02-15T10:48:10;8.90;99.90
14172;DHT22;7165;52.388;4.928;2023-02-15T10:50:46;8.90;99.90
14172;DHT22;7165;52.388;4.928;2023-02-15T10:53:34;9.00;99.90
14172;DHT22;7165;52.388;4.928;2023-02-15T10:56:14;9.00;99.90
14172;DHT22;7165;52.388;4.928;2023-02-15T11:01:54;9.20;99.90
14172;DHT22;7165;52.388;4.928;2023-02-15T11:04:47;9.30;99.90
14172;DHT22;7165;52.388;4.928;2023-02-15T11:07:18;9.40;99.90
14172;DHT22;7165;52.388;4.928;2023-02-15T11:09:50;9.50;99.90
14172;DHT22;7165;52.388;4.928;2023-02-15T11:12:21;9.50;99.90
14172;DHT22;7165;52.388;4.928;2023-02-15T11:14:52;9.60;99.90
14172;DHT22;7165;52.388;4.928;2023-02-15T11:17:24;9.60;99.90
14172;DHT22;7165;52.388;4.928;2023-02-15T11:19:58;9.70;99.90
14172;DHT22;7165;52.388;4.928;2023-02-15T11:22:28;9.70;99.90
14172;DHT22;7165;52.388;4.928;2023-02-15T11:24:58;9.70;99.90
14172;DHT22;7165;52.388;4.928;2023-02-15T11:27:26;9.80;99.90
14172;DHT22;7165;52.388;4.928;2023-02-15T11:29:59;9.80;99.90
14172;DHT22;7165;52.388;4.928;2023-02-15T11:32:31;9.90;99.90
14172;DHT22;7165;52.388;4.928;2023-02-15T11:35:02;10.00;99.90
14172;DHT22;7165;52.388;4.928;2023-02-15T11:37:35;10.00;99.90
14172;DHT22;7165;52.388;4.928;2023-02-15T11:40:15;10.10;99.90
14172;DHT22;7165;52.388;4.928;2023-02-15T11:42:44;10.10;99.90
14172;DHT22;7165;52.388;4.928;2023-02-15T11:45:21;10.20;99.90
14172;DHT22;7165;52.388;4.928;2023-02-15T11:47:50;10.20;99.90
14172;DHT22;7165;52.388;4.928;2023-02-15T11:50:21;10.30;99.90
14172;DHT22;7165;52.388;4.928;2023-02-15T11:52:49;10.40;99.90
14172;DHT22;7165;52.388;4.928;2023-02-15T11:55:20;10.40;99.90
14172;DHT22;7165;52.388;4.928;2023-02-15T11:57:52;10.40;99.90
14172;DHT22;7165;52.388;4.928;2023-02-15T12:00:27;10.40;99.90
14172;DHT22;7165;52.388;4.928;2023-02-15T12:02:58;10.50;99.90
14172;DHT22;7165;52.388;4.928;2023-02-15T12:05:25;10.50;99.90
14172;DHT22;7165;52.388;4.928;2023-02-15T12:07:54;10.50;99.90
14172;DHT22;7165;52.388;4.928;2023-02-15T12:10:24;10.60;99.90
14172;DHT22;7165;52.388;4.928;2023-02-15T12:13:09;10.60;99.90
14172;DHT22;7165;52.388;4.928;2023-02-15T12:15:36;10.80;99.90
14172;DHT22;7165;52.388;4.928;2023-02-15T12:18:05;10.90;99.90
14172;DHT22;7165;52.388;4.928;2023-02-15T12:20:42;11.00;99.90
14172;DHT22;7165;52.388;4.928;2023-02-15T12:23:12;11.10;99.90
14172;DHT22;7165;52.388;4.928;2023-02-15T12:25:41;11.10;99.90
14172;DHT22;7165;52.388;4.928;2023-02-15T12:28:22;11.20;99.90
14172;DHT22;7165;52.388;4.928;2023-02-15T12:30:50;11.20;99.90
14172;DHT22;7165;52.388;4.928;2023-02-15T12:33:26;11.40;99.90
14172;DHT22;7165;52.388;4.928;2023-02-15T12:35:57;11.50;99.90
14172;DHT22;7165;52.388;4.928;2023-02-15T12:38:26;11.60;99.90
14172;DHT22;7165;52.388;4.928;2023-02-15T12:40:58;11.70;99.90
14172;DHT22;7165;52.388;4.928;2023-02-15T12:43:26;11.80;99.90
14172;DHT22;7165;52.388;4.928;2023-02-15T12:46:13;11.80;99.90
14172;DHT22;7165;52.388;4.928;2023-02-15T12:48:42;11.80;99.90
14172;DHT22;7165;52.388;4.928;2023-02-15T12:51:12;11.80;99.90
14172;DHT22;7165;52.388;4.928;2023-02-15T12:53:40;11.80;99.90
14172;DHT22;7165;52.388;4.928;2023-02-15T12:56:09;11.90;99.90
14172;DHT22;7165;52.388;4.928;2023-02-15T12:58:37;12.10;99.90
14172;DHT22;7165;52.388;4.928;2023-02-15T13:01:11;12.10;99.90
14172;DHT22;7165;52.388;4.928;2023-02-15T13:03:40;12.20;99.90
14172;DHT22;7165;52.388;4.928;2023-02-15T13:06:18;12.10;99.90
14172;DHT22;7165;52.388;4.928;2023-02-15T13:08:49;12.10;99.90
14172;DHT22;7165;52.388;4.928;2023-02-15T13:11:19;12.10;99.90
14172;DHT22;7165;52.388;4.928;2023-02-15T13:13:47;12.10;99.90
14172;DHT22;7165;52.388;4.928;2023-02-15T13:16:21;12.10;99.90
14172;DHT22;7165;52.388;4.928;2023-02-15T13:18:51;12.10;99.90
14172;DHT22;7165;52.388;4.928;2023-02-15T13:21:20;12.10;99.90
14172;DHT22;7165;52.388;4.928;2023-02-15T13:23:52;12.20;99.90
14172;DHT22;7165;52.388;4.928;2023-02-15T13:26:21;12.20;99.90
14172;DHT22;7165;52.388;4.928;2023-02-15T13:28:51;12.20;99.90
14172;DHT22;7165;52.388;4.928;2023-02-15T13:31:22;12.20;99.90
14172;DHT22;7165;52.388;4.928;2023-02-15T13:33:51;12.10;99.90
14172;DHT22;7165;52.388;4.928;2023-02-15T13:36:25;12.10;99.90
14172;DHT22;7165;52.388;4.928;2023-02-15T13:39:03;12.20;99.90
14172;DHT22;7165;52.388;4.928;2023-02-15T13:41:39;12.10;99.90
14172;DHT22;7165;52.388;4.928;2023-02-15T13:44:14;12.20;99.90
14172;DHT22;7165;52.388;4.928;2023-02-15T13:46:55;12.20;99.90
14172;DHT22;7165;52.388;4.928;2023-02-15T13:49:44;12.30;99.90
14172;DHT22;7165;52.388;4.928;2023-02-15T13:52:19;12.30;99.90
14172;DHT22;7165;52.388;4.928;2023-02-15T13:57:54;12.30;99.90
14172;DHT22;7165;52.388;4.928;2023-02-15T14:00:27;12.20;99.90
14172;DHT22;7165;52.388;4.928;2023-02-15T14:03:11;12.20;99.90
14172;DHT22;7165;52.388;4.928;2023-02-15T14:05:50;12.10;99.90
14172;DHT22;7165;52.388;4.928;2023-02-15T14:08:29;12.10;99.90
14172;DHT22;7165;52.388;4.928;2023-02-15T14:11:06;12.20;99.90
14172;DHT22;7165;52.388;4.928;2023-02-15T14:13:57;12.20;99.90
14172;DHT22;7165;52.388;4.928;2023-02-15T14:16:32;12.20;99.90
14172;DHT22;7165;52.388;4.928;2023-02-15T14:19:09;12.30;99.90
14172;DHT22;7165;52.388;4.928;2023-02-15T14:21:43;12.20;99.90
14172;DHT22;7165;52.388;4.928;2023-02-15T14:24:26;12.20;99.90
14172;DHT22;7165;52.388;4.928;2023-02-15T14:27:03;12.20;99.90
14172;DHT22;7165;52.388;4.928;2023-02-15T14:29:45;12.30;99.90
14172;DHT22;7165;52.388;4.928;2023-02-15T14:32:18;12.30;99.90
14172;DHT22;7165;52.388;4.928;2023-02-15T14:34:49;12.30;99.90
14172;DHT22;7165;52.388;4.928;2023-02-15T14:37:19;12.50;99.90
14172;DHT22;7165;52.388;4.928;2023-02-15T14:39:55;12.70;99.90
14172;DHT22;7165;52.388;4.928;2023-02-15T14:42:47;12.80;99.90
14172;DHT22;7165;52.388;4.928;2023-02-15T14:45:22;13.00;99.90
14172;DHT22;7165;52.388;4.928;2023-02-15T14:48:00;13.00;99.90
14172;DHT22;7165;52.388;4.928;2023-02-15T14:50:43;12.90;99.90
14172;DHT22;7165;52.388;4.928;2023-02-15T14:53:33;12.90;99.90
14172;DHT22;7165;52.388;4.928;2023-02-15T14:56:21;12.80;99.90
14172;DHT22;7165;52.388;4.928;2023-02-15T14:59:12;12.70;99.90
14172;DHT22;7165;52.388;4.928;2023-02-15T15:01:40;12.60;99.90
14172;DHT22;7165;52.388;4.928;2023-02-15T15:04:10;12.40;99.90
14172;DHT22;7165;52.388;4.928;2023-02-15T15:06:40;12.40;99.90
14172;DHT22;7165;52.388;4.928;2023-02-15T15:09:14;12.30;99.90
14172;DHT22;7165;52.388;4.928;2023-02-15T15:11:48;12.20;99.90
14172;DHT22;7165;52.388;4.928;2023-02-15T15:14:37;12.10;99.90
14172;DHT22;7165;52.388;4.928;2023-02-15T15:17:05;12.10;99.90
14172;DHT22;7165;52.388;4.928;2023-02-15T15:19:57;12.10;99.90
14172;DHT22;7165;52.388;4.928;2023-02-15T15:22:24;12.00;99.90
14172;DHT22;7165;52.388;4.928;2023-02-15T15:24:53;12.00;99.90
14172;DHT22;7165;52.388;4.928;2023-02-15T15:27:45;12.00;99.90
14172;DHT22;7165;52.388;4.928;2023-02-15T15:37:11;11.80;99.90
14172;DHT22;7165;52.388;4.928;2023-02-15T15:40:13;11.80;99.90
14172;DHT22;7165;52.388;4.928;2023-02-15T15:42:49;11.70;99.90
14172;DHT22;7165;52.388;4.928;2023-02-15T15:48:32;11.60;99.90
14172;DHT22;7165;52.388;4.928;2023-02-15T15:51:02;11.50;99.90
14172;DHT22;7165;52.388;4.928;2023-02-15T15:53:34;11.40;99.90
14172;DHT22;7165;52.388;4.928;2023-02-15T15:56:07;11.40;99.90
14172;DHT22;7165;52.388;4.928;2023-02-15T15:58:42;11.30;99.90
14172;DHT22;7165;52.388;4.928;2023-02-15T16:01:11;11.30;99.90
14172;DHT22;7165;52.388;4.928;2023-02-15T16:03:48;11.20;99.90
14172;DHT22;7165;52.388;4.928;2023-02-15T16:06:27;11.20;99.90
14172;DHT22;7165;52.388;4.928;2023-02-15T16:08:54;11.20;99.90
14172;DHT22;7165;52.388;4.928;2023-02-15T16:11:21;11.20;99.90
14172;DHT22;7165;52.388;4.928;2023-02-15T16:13:50;11.10;99.90
14172;DHT22;7165;52.388;4.928;2023-02-15T16:16:21;11.10;99.90
14172;DHT22;7165;52.388;4.928;2023-02-15T16:18:48;11.00;99.90
14172;DHT22;7165;52.388;4.928;2023-02-15T16:21:18;10.90;99.90
14172;DHT22;7165;52.388;4.928;2023-02-15T16:24:06;10.90;99.90
14172;DHT22;7165;52.388;4.928;2023-02-15T16:29:30;10.80;99.90
14172;DHT22;7165;52.388;4.928;2023-02-15T16:31:59;10.70;99.90
14172;DHT22;7165;52.388;4.928;2023-02-15T16:34:26;10.70;99.90
14172;DHT22;7165;52.388;4.928;2023-02-15T16:37:12;10.60;99.90
14172;DHT22;7165;52.388;4.928;2023-02-15T16:39:41;10.50;99.90
14172;DHT22;7165;52.388;4.928;2023-02-15T16:42:08;10.40;99.90
14172;DHT22;7165;52.388;4.928;2023-02-15T16:44:38;10.40;99.90
14172;DHT22;7165;52.388;4.928;2023-02-15T16:47:12;10.30;99.90
14172;DHT22;7165;52.388;4.928;2023-02-15T16:49:44;10.30;99.90
14172;DHT22;7165;52.388;4.928;2023-02-15T16:52:15;10.20;99.90